Time;durP1;ratioP1;P1;durP2;ratioP2;P2;SDS_P1;SDS_P2;PMS_P1;PMS_P2;Temp;Humidity;BMP_temperature;BMP_pressure;BME280_temperature;BME280_humidity;BME280_pressure;Samples;Min_cycle;Max_cycle;Signal;HPM_P1;HPM_P2
2023/08/30 00:00:45;;;;;;;10.13;9.18;;;14.90;99.90;;;;;;5048240;28;20473;-52
2023/08/30 00:03:12;;;;;;;9.13;8.25;;;14.80;99.90;;;;;;5050762;28;20433;-51
2023/08/30 00:05:40;;;;;;;9.10;8.15;;;14.70;99.90;;;;;;5050312;28;20037;-51
2023/08/30 00:08:05;;;;;;;10.40;9.40;;;14.70;99.90;;;;;;5049971;28;20036;-50
2023/08/30 00:10:31;;;;;;;13.32;10.23;;;14.60;99.90;;;;;;5050132;28;20548;-51
2023/08/30 00:12:56;;;;;;;9.90;8.93;;;14.60;99.90;;;;;;5050195;28;20040;-53
2023/08/30 00:15:22;;;;;;;9.48;8.63;;;14.60;99.90;;;;;;5049253;28;20033;-53
2023/08/30 00:17:47;;;;;;;8.95;8.15;;;14.50;99.90;;;;;;5049898;28;20037;-51
2023/08/30 00:20:13;;;;;;;10.63;9.55;;;14.50;99.90;;;;;;5048938;28;20106;-51
2023/08/30 00:22:39;;;;;;;12.63;10.23;;;14.50;99.90;;;;;;5050313;28;20090;-51
2023/08/30 00:25:05;;;;;;;10.60;9.55;;;14.40;99.90;;;;;;5049629;28;20040;-51
2023/08/30 00:27:31;;;;;;;12.82;10.68;;;14.40;99.90;;;;;;5049610;28;20473;-52
2023/08/30 00:29:56;;;;;;;11.95;10.63;;;14.40;99.90;;;;;;5048884;28;20040;-52
2023/08/30 00:32:22;;;;;;;11.80;10.70;;;14.40;99.90;;;;;;5050041;28;20041;-50
2023/08/30 00:34:51;;;;;;;13.98;11.07;;;14.40;99.90;;;;;;5049813;28;20114;-51
2023/08/30 00:37:17;;;;;;;11.43;10.23;;;14.30;99.90;;;;;;5049862;28;20036;-53
2023/08/30 00:39:43;;;;;;;12.93;11.68;;;14.30;99.90;;;;;;5047415;28;20037;-53
2023/08/30 00:42:09;;;;;;;12.07;11.00;;;14.30;99.90;;;;;;5049515;28;20425;-53
2023/08/30 00:44:34;;;;;;;13.25;10.95;;;14.30;99.90;;;;;;5048449;28;20110;-55
2023/08/30 00:47:02;;;;;;;12.82;10.65;;;14.30;99.90;;;;;;5049376;28;20181;-52
2023/08/30 00:49:29;;;;;;;12.27;11.10;;;14.20;99.90;;;;;;5047682;28;20061;-50
2023/08/30 00:51:56;;;;;;;11.35;10.02;;;14.30;99.90;;;;;;5049277;28;20037;-51
2023/08/30 00:54:21;;;;;;;12.00;10.82;;;14.20;99.90;;;;;;5048531;28;20037;-50
2023/08/30 00:56:47;;;;;;;15.80;10.93;;;14.20;99.90;;;;;;5049322;28;20450;-52
2023/08/30 00:59:13;;;;;;;13.60;12.07;;;14.20;99.90;;;;;;5048135;28;20029;-51
2023/08/30 01:01:41;;;;;;;13.45;10.65;;;14.20;99.90;;;;;;5049338;28;20044;-51
2023/08/30 01:04:07;;;;;;;11.95;10.65;;;14.20;99.90;;;;;;5047491;28;20044;-53
2023/08/30 01:06:35;;;;;;;11.25;9.98;;;14.10;99.90;;;;;;5046671;28;20445;-53
2023/08/30 01:09:01;;;;;;;11.55;10.45;;;14.10;99.90;;;;;;5045155;28;20036;-51
2023/08/30 01:11:39;;;;;;;12.18;10.98;;;14.10;99.90;;;;;;5049353;28;20090;-54
2023/08/30 01:14:09;;;;;;;13.13;11.60;;;14.00;99.90;;;;;;5047204;28;20029;-53
2023/08/30 01:16:38;;;;;;;12.10;10.80;;;14.00;99.90;;;;;;5049360;28;20043;-50
2023/08/30 01:19:27;;;;;;;12.07;10.90;;;14.00;99.90;;;;;;5045963;28;20997;-51
2023/08/30 01:21:52;;;;;;;11.82;10.73;;;14.00;99.90;;;;;;5035525;28;20098;-51
2023/08/30 01:24:28;;;;;;;13.60;11.60;;;13.90;99.90;;;;;;5049320;28;20048;-51
2023/08/30 01:27:11;;;;;;;13.00;11.77;;;13.90;99.90;;;;;;5047114;28;20272;-51
2023/08/30 01:29:42;;;;;;;15.15;12.55;;;13.90;99.90;;;;;;5048155;28;20123;-51
2023/08/30 01:32:09;;;;;;;14.52;12.45;;;13.80;99.90;;;;;;5049201;28;20040;-50
2023/08/30 01:34:38;;;;;;;11.85;10.70;;;13.80;99.90;;;;;;5048991;28;20067;-53
2023/08/30 01:37:08;;;;;;;13.38;11.98;;;13.80;99.90;;;;;;5048804;28;20037;-50
2023/08/30 01:39:35;;;;;;;12.68;11.48;;;13.70;99.90;;;;;;5048155;28;20409;-55
2023/08/30 01:42:02;;;;;;;14.90;13.30;;;13.70;99.90;;;;;;5048729;28;20037;-50
2023/08/30 01:44:29;;;;;;;13.48;12.15;;;13.70;99.90;;;;;;5048857;28;20033;-52
2023/08/30 01:46:56;;;;;;;13.52;11.85;;;13.70;99.90;;;;;;5048392;28;20040;-51
2023/08/30 01:49:22;;;;;;;12.95;11.65;;;13.70;99.90;;;;;;5030025;28;20033;-53
2023/08/30 01:51:49;;;;;;;14.75;12.50;;;13.60;99.90;;;;;;5048332;28;20041;-52
2023/08/30 01:54:18;;;;;;;14.35;12.63;;;13.70;99.90;;;;;;5048757;28;20037;-50
2023/08/30 01:56:47;;;;;;;14.20;12.68;;;13.60;99.90;;;;;;5033088;28;20044;-51
2023/08/30 01:59:13;;;;;;;15.07;11.43;;;13.60;99.90;;;;;;5047853;28;20052;-50
2023/08/30 02:01:39;;;;;;;11.65;10.55;;;13.50;99.90;;;;;;5048272;28;20432;-50
2023/08/30 02:04:04;;;;;;;13.90;12.50;;;13.50;99.90;;;;;;5049395;28;20048;-51
2023/08/30 02:06:45;;;;;;;16.45;11.70;;;13.50;99.90;;;;;;5049095;28;20044;-51
2023/08/30 02:09:49;;;;;;;14.52;13.02;;;13.40;99.90;;;;;;5047595;28;20086;-52
2023/08/30 02:12:16;;;;;;;11.43;10.35;;;13.40;99.90;;;;;;5030910;28;20049;-50
2023/08/30 02:14:47;;;;;;;10.52;9.52;;;13.40;99.90;;;;;;5048301;28;20098;-53
2023/08/30 02:17:14;;;;;;;12.75;11.23;;;13.30;99.90;;;;;;5048627;28;20029;-51
2023/08/30 02:19:40;;;;;;;14.55;12.18;;;13.30;99.90;;;;;;5047371;28;20048;-53
2023/08/30 02:22:06;;;;;;;14.73;10.80;;;13.30;99.90;;;;;;5048283;28;20037;-53
2023/08/30 02:24:32;;;;;;;15.00;10.38;;;13.30;99.90;;;;;;5048543;28;20121;-51
2023/08/30 02:26:57;;;;;;;13.25;11.27;;;13.20;99.90;;;;;;5045496;28;20486;-50
2023/08/30 02:29:23;;;;;;;13.93;11.88;;;13.20;99.90;;;;;;5047415;28;20135;-54
2023/08/30 02:31:49;;;;;;;;;;;13.20;99.90;;;;;;5048417;28;20045;-52
2023/08/30 02:34:15;;;;;;;12.63;11.32;;;13.10;99.90;;;;;;5047999;28;19925;-53
2023/08/30 02:36:40;;;;;;;18.10;11.75;;;13.20;99.90;;;;;;5047246;28;20379;-52
2023/08/30 02:39:07;;;;;;;13.43;11.07;;;13.20;99.90;;;;;;5047271;28;20068;-50
2023/08/30 02:41:32;;;;;;;;;;;13.20;99.90;;;;;;5048496;28;20514;-51
2023/08/30 02:43:58;;;;;;;13.48;10.85;;;13.20;99.90;;;;;;5048495;28;19917;-52
2023/08/30 02:46:23;;;;;;;14.32;12.90;;;13.20;99.90;;;;;;5047175;28;20062;-52
2023/08/30 02:48:49;;;;;;;17.95;12.13;;;13.20;99.90;;;;;;5047497;28;20056;-51
2023/08/30 02:51:14;;;;;;;15.73;12.40;;;13.20;99.90;;;;;;5047928;28;20490;-52
2023/08/30 02:53:40;;;;;;;15.73;11.75;;;13.30;99.90;;;;;;5048300;28;20048;-52
2023/08/30 02:56:05;;;;;;;18.83;12.70;;;13.30;99.90;;;;;;5047752;28;20037;-52
2023/08/30 02:58:31;;;;;;;15.18;11.52;;;13.20;99.90;;;;;;5046583;28;20037;-52
2023/08/30 03:00:56;;;;;;;17.25;11.68;;;13.20;99.90;;;;;;5046870;28;20033;-52
2023/08/30 03:03:22;;;;;;;15.23;11.75;;;13.20;99.90;;;;;;5047571;28;20139;-51
2023/08/30 03:05:48;;;;;;;15.73;12.35;;;13.20;99.90;;;;;;5047236;28;20040;-50
2023/08/30 03:08:13;;;;;;;14.57;12.93;;;13.20;99.90;;;;;;5047553;28;20509;-50
2023/08/30 03:10:39;;;;;;;13.95;12.65;;;13.20;99.90;;;;;;5047553;28;20041;-52
2023/08/30 03:13:05;;;;;;;13.43;11.82;;;13.20;99.90;;;;;;5049201;28;20040;-51
2023/08/30 03:15:32;;;;;;;;;;;13.10;99.90;;;;;;5051655;28;20069;-53
2023/08/30 03:17:58;;;;;;;17.15;14.07;;;13.10;99.90;;;;;;5051178;28;19924;-50
2023/08/30 03:20:23;;;;;;;16.17;13.83;;;13.00;99.90;;;;;;5047974;28;20059;-51
2023/08/30 03:22:49;;;;;;;14.35;12.93;;;13.00;99.90;;;;;;5049999;28;20334;-51
2023/08/30 03:25:14;;;;;;;14.57;13.07;;;12.90;99.90;;;;;;5050320;28;20064;-50
2023/08/30 03:27:40;;;;;;;16.35;13.95;;;13.00;99.90;;;;;;5051242;28;20283;-53
2023/08/30 03:30:06;;;;;;;15.40;13.90;;;12.90;99.90;;;;;;5050157;28;20041;-51
2023/08/30 03:32:32;;;;;;;17.77;14.98;;;12.90;99.90;;;;;;5050862;28;20441;-51
2023/08/30 03:34:58;;;;;;;18.52;14.18;;;12.90;99.90;;;;;;5050543;28;20853;-52
2023/08/30 03:37:23;;;;;;;17.95;13.65;;;12.90;99.90;;;;;;5048431;28;20485;-53
2023/08/30 03:39:49;;;;;;;16.23;13.93;;;12.80;99.90;;;;;;5050023;28;20040;-50
2023/08/30 03:42:14;;;;;;;21.20;14.35;;;12.80;99.90;;;;;;5049752;28;20037;-51
2023/08/30 03:44:40;;;;;;;15.10;13.55;;;12.70;99.90;;;;;;5050655;28;20445;-53
2023/08/30 03:47:06;;;;;;;22.20;14.85;;;12.70;99.90;;;;;;5050846;28;20032;-53
2023/08/30 03:49:31;;;;;;;16.15;13.48;;;12.70;99.90;;;;;;5049893;28;20739;-53
2023/08/30 03:51:57;;;;;;;18.23;13.65;;;12.80;99.90;;;;;;5030250;28;20111;-50
2023/08/30 03:54:23;;;;;;;17.48;13.55;;;12.70;99.90;;;;;;5050957;28;20036;-54
2023/08/30 03:56:48;;;;;;;17.77;13.38;;;12.70;99.90;;;;;;5050589;28;20053;-51
2023/08/30 03:59:14;;;;;;;15.15;13.65;;;12.70;99.90;;;;;;5049733;28;20021;-50
2023/08/30 04:01:39;;;;;;;15.25;13.68;;;12.70;99.90;;;;;;5050617;28;20041;-53
2023/08/30 04:04:05;;;;;;;16.00;14.27;;;12.60;99.90;;;;;;5050187;28;20048;-53
2023/08/30 04:06:31;;;;;;;16.88;14.15;;;12.60;99.90;;;;;;5050418;28;20044;-51
2023/08/30 04:08:57;;;;;;;14.65;13.15;;;12.60;99.90;;;;;;5049947;28;20039;-50
2023/08/30 04:11:23;;;;;;;16.25;14.52;;;12.60;99.90;;;;;;5050570;28;20127;-51
2023/08/30 04:13:48;;;;;;;14.77;13.35;;;12.60;99.90;;;;;;5048395;28;20036;-51
2023/08/30 04:16:14;;;;;;;14.85;13.45;;;12.60;99.90;;;;;;5050250;28;20040;-51
2023/08/30 04:18:40;;;;;;;17.23;14.15;;;12.60;99.90;;;;;;5049381;28;20040;-53
2023/08/30 04:21:07;;;;;;;17.95;13.52;;;12.60;99.90;;;;;;5050457;28;20037;-50
2023/08/30 04:23:33;;;;;;;14.93;13.40;;;12.60;99.90;;;;;;5050447;28;20044;-50
2023/08/30 04:25:58;;;;;;;14.85;12.90;;;12.70;99.90;;;;;;5050243;28;20086;-50
2023/08/30 04:28:26;;;;;;;15.57;12.82;;;12.70;99.90;;;;;;5050094;28;20033;-52
2023/08/30 04:30:54;;;;;;;16.27;12.93;;;12.70;99.90;;;;;;5049401;28;20045;-51
2023/08/30 04:33:20;;;;;;;17.48;12.63;;;12.70;99.90;;;;;;5047641;28;20072;-51
2023/08/30 04:35:53;;;;;;;13.90;12.60;;;12.70;99.90;;;;;;5050092;28;20454;-50
2023/08/30 04:38:20;;;;;;;17.13;12.55;;;12.70;99.90;;;;;;5049648;28;20094;-52
2023/08/30 04:40:46;;;;;;;15.70;14.00;;;12.70;99.90;;;;;;5049703;28;20166;-50
2023/08/30 04:43:12;;;;;;;15.88;13.77;;;12.60;99.90;;;;;;5030917;28;20049;-50
2023/08/30 04:45:37;;;;;;;16.15;13.50;;;12.60;99.90;;;;;;5049318;28;20036;-52
2023/08/30 04:48:03;;;;;;;16.10;13.05;;;12.60;99.90;;;;;;5046343;28;20098;-51
2023/08/30 04:50:30;;;;;;;14.15;12.75;;;12.60;99.90;;;;;;5045963;28;20394;-53
2023/08/30 04:52:56;;;;;;;17.85;13.20;;;12.60;99.90;;;;;;5048067;28;20044;-52
2023/08/30 04:55:23;;;;;;;16.42;12.63;;;12.60;99.90;;;;;;5047802;28;20032;-53
2023/08/30 04:57:49;;;;;;;16.23;12.90;;;12.50;99.90;;;;;;5048350;28;20410;-51
2023/08/30 05:00:15;;;;;;;14.35;12.80;;;12.50;99.90;;;;;;5048692;28;20032;-52
2023/08/30 05:02:43;;;;;;;15.68;14.00;;;12.50;99.90;;;;;;5049730;28;20033;-51
2023/08/30 05:05:09;;;;;;;20.02;13.35;;;12.50;99.90;;;;;;5049186;28;20059;-53
2023/08/30 05:07:34;;;;;;;16.33;13.60;;;12.50;99.90;;;;;;5046727;28;20037;-50
2023/08/30 05:10:00;;;;;;;15.77;14.13;;;12.50;99.90;;;;;;5048896;28;20118;-50
2023/08/30 05:12:25;;;;;;;16.17;13.93;;;12.50;99.90;;;;;;5049083;28;20067;-50
2023/08/30 05:14:51;;;;;;;18.35;13.88;;;12.60;99.90;;;;;;5048553;28;20033;-50
2023/08/30 05:17:17;;;;;;;15.13;13.60;;;12.60;99.90;;;;;;5049439;28;20469;-50
2023/08/30 05:19:43;;;;;;;18.35;15.18;;;12.60;99.90;;;;;;5048604;28;20457;-53
2023/08/30 05:22:08;;;;;;;16.17;14.57;;;12.60;99.90;;;;;;5049244;28;20095;-50
2023/08/30 05:24:34;;;;;;;17.42;14.80;;;12.70;99.90;;;;;;5049496;28;20037;-50
2023/08/30 05:26:59;;;;;;;18.40;13.30;;;12.70;99.90;;;;;;5048893;28;20044;-51
2023/08/30 05:29:25;;;;;;;15.90;13.73;;;12.70;99.90;;;;;;5046341;28;20652;-54
2023/08/30 05:31:51;;;;;;;16.50;14.38;;;12.70;99.90;;;;;;5047653;28;20304;-50
2023/08/30 05:34:16;;;;;;;17.90;13.82;;;12.80;99.90;;;;;;5046400;28;20108;-50
2023/08/30 05:36:42;;;;;;;16.92;15.05;;;12.80;99.90;;;;;;5045303;28;20126;-50
2023/08/30 05:39:07;;;;;;;16.08;14.45;;;12.80;99.90;;;;;;5047915;28;20171;-50
2023/08/30 05:41:33;;;;;;;19.58;15.23;;;12.80;99.90;;;;;;5047775;28;20486;-50
2023/08/30 05:43:59;;;;;;;16.20;14.48;;;12.80;99.90;;;;;;5046591;28;20482;-51
2023/08/30 05:46:24;;;;;;;18.50;14.52;;;12.90;99.90;;;;;;5047410;28;20044;-50
2023/08/30 05:48:50;;;;;;;17.58;14.93;;;12.90;99.90;;;;;;5047839;28;20063;-51
2023/08/30 05:51:16;;;;;;;17.92;15.43;;;12.90;99.90;;;;;;5049355;28;20154;-52
2023/08/30 05:53:41;;;;;;;18.10;15.35;;;12.90;99.90;;;;;;5045950;28;20131;-52
2023/08/30 05:56:07;;;;;;;19.98;15.70;;;13.00;99.90;;;;;;5047545;28;20083;-50
2023/08/30 05:58:33;;;;;;;21.30;15.60;;;13.00;99.90;;;;;;5046099;28;20111;-52
2023/08/30 06:01:00;;;;;;;22.50;15.68;;;13.00;99.90;;;;;;5047681;28;20033;-50
2023/08/30 06:03:26;;;;;;;19.23;16.48;;;13.00;99.90;;;;;;5047827;28;20033;-53
2023/08/30 06:05:53;;;;;;;19.38;16.23;;;13.10;99.90;;;;;;5048448;28;20067;-50
2023/08/30 06:08:18;;;;;;;17.13;14.73;;;13.10;99.90;;;;;;5047804;28;20071;-51
2023/08/30 06:10:44;;;;;;;18.17;15.57;;;13.10;99.90;;;;;;5048141;28;20475;-51
2023/08/30 06:13:10;;;;;;;21.25;15.90;;;13.10;99.90;;;;;;5046021;28;20478;-52
2023/08/30 06:15:37;;;;;;;18.20;15.82;;;13.10;99.90;;;;;;5043651;28;20036;-50
2023/08/30 06:18:03;;;;;;;17.35;14.52;;;13.20;99.90;;;;;;5046114;28;20041;-52
2023/08/30 06:20:29;;;;;;;20.13;16.42;;;13.20;99.90;;;;;;5046106;28;20053;-50
2023/08/30 06:22:54;;;;;;;20.58;15.23;;;13.20;99.90;;;;;;5043129;28;20166;-50
2023/08/30 06:25:20;;;;;;;20.00;16.77;;;13.20;99.90;;;;;;5044977;28;20045;-52
2023/08/30 06:28:01;;;;;;;18.65;15.45;;;13.20;99.90;;;;;;5047547;28;20499;-50
2023/08/30 06:30:27;;;;;;;17.08;14.55;;;13.30;99.90;;;;;;5046341;28;20083;-51
2023/08/30 06:32:53;;;;;;;17.70;15.65;;;13.30;99.90;;;;;;5047528;28;20063;-53
2023/08/30 06:35:19;;;;;;;17.90;16.00;;;13.40;99.90;;;;;;5047057;28;20545;-51
2023/08/30 06:37:44;;;;;;;26.23;17.48;;;13.40;99.90;;;;;;5045576;28;20117;-52
2023/08/30 06:40:10;;;;;;;16.15;14.45;;;13.40;99.90;;;;;;5043902;28;20033;-51
2023/08/30 06:42:38;;;;;;;19.42;15.40;;;13.50;99.90;;;;;;5037705;28;20087;-51
2023/08/30 06:45:04;;;;;;;17.52;14.45;;;13.50;99.90;;;;;;5021881;28;20454;-50
2023/08/30 06:47:30;;;;;;;16.95;15.15;;;13.60;99.90;;;;;;5041094;28;20073;-51
2023/08/30 06:49:55;;;;;;;17.25;15.45;;;13.60;99.90;;;;;;5046683;28;20117;-50
2023/08/30 06:52:22;;;;;;;19.15;15.75;;;13.70;99.90;;;;;;5048854;28;20505;-50
2023/08/30 06:54:47;;;;;;;19.70;15.65;;;13.80;99.90;;;;;;5045658;28;20028;-51
2023/08/30 06:57:13;;;;;;;23.08;16.17;;;13.80;99.90;;;;;;5042048;28;20040;-50
2023/08/30 06:59:38;;;;;;;22.25;16.65;;;13.90;99.90;;;;;;5044877;28;20044;-52
2023/08/30 07:02:04;;;;;;;19.48;16.52;;;13.90;99.90;;;;;;5047238;28;20490;-53
2023/08/30 07:04:30;;;;;;;21.20;16.83;;;14.00;99.90;;;;;;5041759;28;20072;-51
2023/08/30 07:06:55;;;;;;;19.30;16.42;;;14.10;99.90;;;;;;5042842;28;20049;-51
2023/08/30 07:09:23;;;;;;;19.42;15.98;;;14.20;99.90;;;;;;5044288;28;20041;-52
2023/08/30 07:11:49;;;;;;;23.65;16.50;;;14.30;99.90;;;;;;5038931;28;20155;-52
2023/08/30 07:14:14;;;;;;;15.18;13.27;;;14.40;99.90;;;;;;5045703;28;20590;-52
2023/08/30 07:16:41;;;;;;;16.33;14.25;;;14.40;99.90;;;;;;5023594;28;20037;-50
2023/08/30 07:19:06;;;;;;;;;;;14.60;99.90;;;;;;5048291;28;20040;-49
2023/08/30 07:21:32;;;;;;;16.13;13.95;;;14.70;99.90;;;;;;5046192;28;20293;-50
2023/08/30 07:23:58;;;;;;;;;;;14.80;99.90;;;;;;5043027;28;20063;-50
2023/08/30 07:26:24;;;;;;;14.27;12.77;;;15.00;99.90;;;;;;5043625;28;19917;-51
2023/08/30 07:28:49;;;;;;;18.73;13.40;;;15.10;99.90;;;;;;5050281;28;20060;-52
2023/08/30 07:31:18;;;;;;;17.00;13.43;;;15.20;99.90;;;;;;5051664;28;20249;-49
2023/08/30 07:33:46;;;;;;;17.90;13.75;;;15.20;99.90;;;;;;5046019;28;20041;-52
2023/08/30 07:36:12;;;;;;;20.90;13.60;;;15.30;99.90;;;;;;5050359;28;20052;-50
2023/08/30 07:38:38;;;;;;;16.67;14.02;;;15.20;99.90;;;;;;5050259;28;20037;-52
2023/08/30 07:41:03;;;;;;;17.52;14.43;;;15.30;99.90;;;;;;5048577;28;20059;-54
2023/08/30 07:43:29;;;;;;;15.90;13.98;;;15.30;99.90;;;;;;5047908;28;20570;-52
2023/08/30 07:45:56;;;;;;;15.95;13.73;;;15.30;99.90;;;;;;5043555;28;20076;-50
2023/08/30 07:48:22;;;;;;;19.63;14.52;;;15.30;99.90;;;;;;5044686;28;20037;-52
2023/08/30 07:50:47;;;;;;;15.52;13.80;;;15.30;99.90;;;;;;5044618;28;20040;-53
2023/08/30 07:53:13;;;;;;;22.60;13.25;;;15.40;99.90;;;;;;5039437;28;20036;-53
2023/08/30 07:55:38;;;;;;;18.73;13.73;;;15.40;99.90;;;;;;5035879;28;20032;-53
2023/08/30 07:58:04;;;;;;;14.68;12.63;;;15.40;99.90;;;;;;5044494;28;20064;-51
2023/08/30 08:00:30;;;;;;;18.83;13.23;;;15.50;99.90;;;;;;5042776;28;20530;-51
2023/08/30 08:02:55;;;;;;;15.35;12.85;;;15.60;99.90;;;;;;5048476;28;20037;-52
2023/08/30 08:05:21;;;;;;;19.55;14.63;;;15.70;99.90;;;;;;5045798;28;20037;-50
2023/08/30 08:07:53;;;;;;;14.32;12.82;;;15.80;99.90;;;;;;5048037;28;20502;-53
2023/08/30 08:10:19;;;;;;;20.70;12.48;;;16.00;99.90;;;;;;5045556;28;20060;-50
2023/08/30 08:12:45;;;;;;;16.70;13.38;;;16.10;99.90;;;;;;5048555;28;20048;-52
2023/08/30 08:15:11;;;;;;;18.45;12.70;;;16.30;99.90;;;;;;5046346;28;20025;-51
2023/08/30 08:17:36;;;;;;;19.38;12.70;;;16.30;99.90;;;;;;5050736;28;20029;-53
2023/08/30 08:20:05;;;;;;;14.60;12.65;;;16.40;99.90;;;;;;5038651;28;20056;-52
2023/08/30 08:22:30;;;;;;;16.70;12.13;;;16.50;99.90;;;;;;5044675;28;20087;-54
2023/08/30 08:24:57;;;;;;;14.68;12.13;;;16.50;99.90;;;;;;5029346;28;20326;-51
2023/08/30 08:27:24;;;;;;;18.50;12.23;;;16.50;99.90;;;;;;5041989;28;20044;-55
2023/08/30 08:29:50;;;;;;;13.90;12.13;;;16.40;99.90;;;;;;5042870;28;20112;-49
2023/08/30 08:32:15;;;;;;;17.70;13.23;;;16.30;99.90;;;;;;5044322;28;20121;-51
2023/08/30 08:34:41;;;;;;;15.63;11.75;;;16.30;99.90;;;;;;5033054;28;20037;-50
2023/08/30 08:37:06;;;;;;;14.02;12.00;;;16.30;99.90;;;;;;5042639;28;20220;-50
2023/08/30 08:39:32;;;;;;;14.68;12.43;;;16.20;99.90;;;;;;5046607;28;20043;-55
2023/08/30 08:41:59;;;;;;;12.95;11.65;;;16.20;99.90;;;;;;5038790;28;20033;-51
2023/08/30 08:44:26;;;;;;;14.85;12.93;;;16.20;99.90;;;;;;5045441;28;20097;-50
2023/08/30 08:46:52;;;;;;;16.67;13.02;;;16.20;99.90;;;;;;5038276;28;20433;-52
2023/08/30 08:49:18;;;;;;;14.13;12.35;;;16.10;99.90;;;;;;5033550;28;20041;-51
2023/08/30 08:51:45;;;;;;;13.48;11.57;;;16.10;99.90;;;;;;5036283;28;20040;-54
2023/08/30 08:54:11;;;;;;;15.77;11.98;;;16.10;99.90;;;;;;5042443;28;20048;-53
2023/08/30 08:56:38;;;;;;;12.07;10.80;;;16.10;99.90;;;;;;5038368;28;20044;-51
2023/08/30 08:59:06;;;;;;;15.63;11.40;;;16.10;99.90;;;;;;5041680;28;20029;-51
2023/08/30 09:01:35;;;;;;;15.23;12.15;;;16.10;99.90;;;;;;5043705;28;20072;-53
2023/08/30 09:04:06;;;;;;;13.63;11.77;;;16.10;99.90;;;;;;5042480;28;20040;-53
2023/08/30 09:06:31;;;;;;;26.92;10.63;;;16.10;99.90;;;;;;5044296;28;20297;-51
2023/08/30 09:08:57;;;;;;;21.13;11.00;;;16.10;99.90;;;;;;5040112;28;20040;-53
2023/08/30 09:11:23;;;;;;;24.67;11.35;;;16.10;99.90;;;;;;5044393;28;20150;-50
2023/08/30 09:13:48;;;;;;;16.58;11.88;;;16.00;99.90;;;;;;5040695;28;20106;-54
2023/08/30 09:16:15;;;;;;;29.83;11.10;;;16.00;99.90;;;;;;5040320;28;20445;-53
2023/08/30 09:18:43;;;;;;;15.27;10.48;;;15.90;99.90;;;;;;5043653;28;20305;-53
2023/08/30 09:21:10;;;;;;;18.27;10.93;;;15.90;99.90;;;;;;5060120;28;20421;-52
2023/08/30 09:23:37;;;;;;;42.08;13.52;;;15.90;99.90;;;;;;5047922;28;20063;-50
2023/08/30 09:26:03;;;;;;;17.38;11.95;;;15.80;99.90;;;;;;5029045;28;20120;-51
2023/08/30 09:28:29;;;;;;;26.13;11.63;;;15.80;99.90;;;;;;5045416;28;20070;-52
2023/08/30 09:30:57;;;;;;;;;;;15.70;99.90;;;;;;5058262;28;20036;-54
2023/08/30 09:33:29;;;;;;;15.57;11.93;;;15.70;99.90;;;;;;5056007;28;19920;-50
2023/08/30 09:35:54;;;;;;;102.47;15.32;;;15.60;99.90;;;;;;5050577;28;20050;-49
2023/08/30 09:38:20;;;;;;;15.10;12.07;;;15.50;99.90;;;;;;5058832;28;20482;-51
2023/08/30 09:40:46;;;;;;;;;;;15.50;99.90;;;;;;5045732;28;20041;-55
2023/08/30 09:43:13;;;;;;;46.60;13.68;;;15.40;99.90;;;;;;5037449;28;19923;-55
2023/08/30 09:45:39;;;;;;;17.17;12.30;;;15.30;99.90;;;;;;5038928;28;20504;-51
2023/08/30 09:48:05;;;;;;;20.40;13.60;;;15.20;99.90;;;;;;5046434;28;20114;-50
2023/08/30 09:50:35;;;;;;;19.15;12.40;;;15.10;99.90;;;;;;5049610;28;20158;-55
2023/08/30 09:53:08;;;;;;;22.33;13.07;;;15.10;99.90;;;;;;5044208;28;20037;-55
2023/08/30 09:55:34;;;;;;;21.40;13.48;;;15.00;99.90;;;;;;5040633;28;20041;-51
2023/08/30 09:58:01;;;;;;;;;;;15.00;99.90;;;;;;5060053;28;20040;-55
2023/08/30 10:00:27;;;;;;;37.20;12.90;;;15.00;99.90;;;;;;5044156;28;20030;-54
2023/08/30 10:02:54;;;;;;;14.60;11.43;;;14.90;99.90;;;;;;5048808;28;20033;-55
2023/08/30 10:05:20;;;;;;;15.40;9.80;;;15.00;99.90;;;;;;5023856;28;20217;-55
2023/08/30 10:07:46;;;;;;;;;;;15.00;99.90;;;;;;5045691;28;20045;-54
2023/08/30 10:10:12;;;;;;;32.55;12.02;;;15.10;99.90;;;;;;5043302;28;20389;-56
2023/08/30 10:12:40;;;;;;;11.88;10.50;;;15.20;99.90;;;;;;5044287;28;20033;-53
2023/08/30 10:15:06;;;;;;;14.02;10.90;;;15.30;99.90;;;;;;5040803;28;20041;-51
2023/08/30 10:17:34;;;;;;;13.93;10.98;;;15.30;99.90;;;;;;5041668;28;20029;-53
2023/08/30 10:20:04;;;;;;;17.63;12.15;;;15.50;99.90;;;;;;5038351;28;20733;-55
2023/08/30 10:22:30;;;;;;;13.82;12.30;;;15.60;99.90;;;;;;5043839;28;20044;-55
2023/08/30 10:25:27;;;;;;;13.80;9.68;;;15.70;99.90;;;;;;5043935;28;20352;-54
2023/08/30 10:27:55;;;;;;;12.13;9.45;;;15.70;99.90;;;;;;5020536;28;20055;-54
2023/08/30 10:30:21;;;;;;;11.00;9.73;;;15.70;99.90;;;;;;5023274;28;20045;-53
2023/08/30 10:32:47;;;;;;;9.65;8.75;;;15.70;99.90;;;;;;5044355;28;20033;-50
2023/08/30 10:35:15;;;;;;;13.02;9.05;;;15.70;99.90;;;;;;5042988;28;20112;-54
2023/08/30 10:37:41;;;;;;;9.95;8.95;;;15.70;99.90;;;;;;5043442;28;20124;-54
2023/08/30 10:40:07;;;;;;;11.75;9.73;;;15.60;99.90;;;;;;5042261;28;20021;-56
2023/08/30 10:42:33;;;;;;;15.65;10.60;;;15.60;99.90;;;;;;5043418;28;20080;-53
2023/08/30 10:45:01;;;;;;;13.55;9.40;;;15.60;99.90;;;;;;5041882;28;20090;-53
2023/08/30 10:47:31;;;;;;;15.25;11.10;;;15.60;99.90;;;;;;5042880;28;20033;-53
2023/08/30 10:49:59;;;;;;;14.23;11.38;;;15.60;99.90;;;;;;5042539;28;20036;-54
2023/08/30 10:52:26;;;;;;;13.52;12.05;;;15.60;99.90;;;;;;5041829;28;20441;-53
2023/08/30 10:54:52;;;;;;;13.80;12.25;;;15.60;99.90;;;;;;5040151;28;20578;-50
2023/08/30 10:57:24;;;;;;;17.20;11.55;;;15.50;99.90;;;;;;5043515;28;20098;-53
2023/08/30 11:00:09;;;;;;;14.68;12.10;;;15.50;99.90;;;;;;5038168;28;20617;-50
2023/08/30 11:02:36;;;;;;;14.65;11.45;;;15.40;99.90;;;;;;5043397;28;20045;-51
2023/08/30 11:05:05;;;;;;;13.52;12.07;;;15.30;99.90;;;;;;5025350;28;20118;-56
2023/08/30 11:07:31;;;;;;;17.85;12.65;;;15.30;99.90;;;;;;5043506;28;20499;-50
2023/08/30 11:09:57;;;;;;;14.73;13.15;;;15.30;99.90;;;;;;5041920;28;20617;-55
2023/08/30 11:12:23;;;;;;;15.48;13.80;;;15.30;99.90;;;;;;5044294;28;20119;-54
2023/08/30 11:14:49;;;;;;;17.45;15.05;;;15.30;99.90;;;;;;5042699;28;20518;-52
2023/08/30 11:17:19;;;;;;;17.95;14.38;;;15.30;99.90;;;;;;5043395;28;20037;-53
2023/08/30 11:19:45;;;;;;;16.40;14.55;;;15.20;99.90;;;;;;5038938;28;20048;-54
2023/08/30 11:22:12;;;;;;;;;;;15.20;99.90;;;;;;5043946;28;20060;-55
2023/08/30 11:24:38;;;;;;;16.13;14.48;;;15.20;99.90;;;;;;5042366;28;20389;-51
2023/08/30 11:27:04;;;;;;;17.08;14.05;;;15.10;99.90;;;;;;5043036;28;20033;-54
2023/08/30 11:29:29;;;;;;;19.27;16.15;;;15.10;99.90;;;;;;5042384;28;20041;-53
2023/08/30 11:31:55;;;;;;;18.38;15.60;;;15.10;99.90;;;;;;5025179;28;20041;-53
2023/08/30 11:34:24;;;;;;;20.13;16.83;;;15.20;99.90;;;;;;5043505;28;20041;-55
2023/08/30 11:36:50;;;;;;;17.52;15.50;;;15.10;99.90;;;;;;5046139;28;20057;-50
2023/08/30 11:39:19;;;;;;;;;;;15.20;99.90;;;;;;5043209;28;20124;-53
2023/08/30 11:41:45;;;;;;;18.27;15.68;;;15.20;99.90;;;;;;5040260;28;19924;-55
2023/08/30 11:44:10;;;;;;;19.10;17.15;;;15.20;99.90;;;;;;5046235;28;20032;-50
2023/08/30 11:46:36;;;;;;;18.95;16.67;;;15.30;99.90;;;;;;5043853;28;20071;-53
2023/08/30 11:49:02;;;;;;;17.17;15.45;;;15.30;99.90;;;;;;5043026;28;20413;-52
2023/08/30 11:51:29;;;;;;;22.48;17.98;;;15.30;99.90;;;;;;5047212;28;20131;-52
2023/08/30 11:53:55;;;;;;;19.95;17.77;;;15.40;99.90;;;;;;5039092;28;20072;-54
2023/08/30 11:56:22;;;;;;;22.38;17.23;;;15.40;99.90;;;;;;5045101;28;20100;-53
2023/08/30 11:58:48;;;;;;;17.17;15.13;;;15.40;99.90;;;;;;5045392;28;20258;-51
2023/08/30 12:01:14;;;;;;;16.77;14.80;;;15.40;99.90;;;;;;5043979;28;20021;-54
2023/08/30 12:03:40;;;;;;;;;;;15.40;99.90;;;;;;5051577;28;20075;-54
2023/08/30 12:06:13;;;;;;;15.10;13.50;;;15.40;99.90;;;;;;5037084;28;20294;-54
2023/08/30 12:08:38;;;;;;;16.63;14.70;;;15.40;99.90;;;;;;5046736;28;20033;-53
2023/08/30 12:11:04;;;;;;;14.18;12.73;;;15.40;99.90;;;;;;5044712;28;20402;-51
2023/08/30 12:13:34;;;;;;;12.98;11.68;;;15.40;99.90;;;;;;5043885;28;20702;-54
2023/08/30 12:16:01;;;;;;;13.77;12.38;;;15.40;99.90;;;;;;5042871;28;20124;-51
2023/08/30 12:18:32;;;;;;;13.32;11.93;;;15.40;99.90;;;;;;5046855;28;20060;-54
2023/08/30 12:21:00;;;;;;;13.82;12.30;;;15.40;99.90;;;;;;5027438;28;20497;-56
2023/08/30 12:23:28;;;;;;;13.63;11.52;;;15.50;99.90;;;;;;5043230;28;20045;-51
2023/08/30 12:26:00;;;;;;;14.70;12.68;;;15.50;99.90;;;;;;5043651;28;20709;-50
2023/08/30 12:28:27;;;;;;;12.40;11.25;;;15.50;99.90;;;;;;5044764;28;20548;-53